createdAt,value
2023-01-17T00:01:34.271Z,20.40
2023-01-17T00:04:23.152Z,18.00
2023-01-17T00:07:11.905Z,18.50
2023-01-17T00:09:57.264Z,19.40
2023-01-17T00:12:28.823Z,21.00
2023-01-17T00:15:01.670Z,18.10
2023-01-17T00:17:32.301Z,17.30
2023-01-17T00:20:22.536Z,19.90
2023-01-17T00:23:11.089Z,18.80
2023-01-17T00:25:59.614Z,19.40
2023-01-17T00:28:29.955Z,20.40
2023-01-17T00:30:59.410Z,19.80
2023-01-17T00:33:29.222Z,17.70
2023-01-17T00:35:59.139Z,17.50
2023-01-17T00:38:29.417Z,18.10
2023-01-17T00:41:03.251Z,20.00
2023-01-17T00:43:52.092Z,19.80
2023-01-17T00:46:40.553Z,18.70
2023-01-17T00:49:29.173Z,21.40
2023-01-17T00:52:17.567Z,19.30
2023-01-17T00:55:06.070Z,21.40
2023-01-17T00:57:55.883Z,21.80
2023-01-17T01:00:44.145Z,16.60
2023-01-17T01:03:33.066Z,19.30
2023-01-17T01:06:24.373Z,17.50
2023-01-17T01:09:13.038Z,16.30
2023-01-17T01:12:01.568Z,17.90
2023-01-17T01:14:50.017Z,18.40
2023-01-17T01:17:38.700Z,14.80
2023-01-17T01:20:28.143Z,14.70
2023-01-17T01:23:16.798Z,14.70
2023-01-17T01:26:05.353Z,17.10
2023-01-17T01:28:53.840Z,16.40
2023-01-17T01:31:42.464Z,15.40
2023-01-17T01:34:13.396Z,16.40
2023-01-17T01:36:44.225Z,16.10
2023-01-17T01:39:15.572Z,14.40
2023-01-17T01:41:46.512Z,14.90
2023-01-17T01:44:34.450Z,14.50
2023-01-17T01:47:05.136Z,11.60
2023-01-17T01:49:36.119Z,10.80
2023-01-17T01:52:08.194Z,15.70
2023-01-17T01:54:41.380Z,13.90
2023-01-17T01:57:13.951Z,15.00
2023-01-17T01:59:48.064Z,13.50
2023-01-17T02:02:18.623Z,13.70
2023-01-17T02:04:49.536Z,15.60
2023-01-17T02:07:22.554Z,13.40
2023-01-17T02:09:53.894Z,12.50
2023-01-17T02:12:24.903Z,10.50
2023-01-17T02:14:55.839Z,16.90
2023-01-17T02:17:32.544Z,12.60
2023-01-17T02:20:20.443Z,13.40
2023-01-17T02:23:09.714Z,11.80
2023-01-17T02:25:54.027Z,13.00
2023-01-17T02:28:35.969Z,13.10
2023-01-17T02:31:12.861Z,14.50
2023-01-17T02:33:48.238Z,16.50
2023-01-17T02:36:22.355Z,14.60
2023-01-17T02:38:54.466Z,12.80
2023-01-17T02:41:29.093Z,14.70
2023-01-17T02:43:59.953Z,12.80
2023-01-17T02:46:30.901Z,12.60
2023-01-17T02:49:02.099Z,13.10
2023-01-17T02:51:55.465Z,12.40
2023-01-17T02:54:34.403Z,12.90
2023-01-17T02:57:24.992Z,13.40
2023-01-17T03:00:00.888Z,13.70
2023-01-17T03:02:32.768Z,14.50
2023-01-17T03:05:06.230Z,14.20
2023-01-17T03:07:38.056Z,15.10
2023-01-17T03:10:10.267Z,12.90
2023-01-17T03:12:41.784Z,13.30
2023-01-17T03:15:14.823Z,14.90
2023-01-17T03:17:48.074Z,13.40
2023-01-17T03:20:20.502Z,12.00
2023-01-17T03:22:52.191Z,14.10
2023-01-17T03:25:22.998Z,14.30
2023-01-17T03:27:53.584Z,16.00
2023-01-17T03:30:24.333Z,14.70
2023-01-17T03:32:55.122Z,14.30
2023-01-17T03:35:26.061Z,14.70
2023-01-17T03:37:56.788Z,12.20
2023-01-17T03:40:27.623Z,13.00
2023-01-17T03:42:58.616Z,12.60
2023-01-17T03:45:29.744Z,13.50
2023-01-17T03:48:00.579Z,13.40
2023-01-17T03:50:31.590Z,14.40
2023-01-17T03:53:02.321Z,12.50
2023-01-17T03:55:33.205Z,11.80
2023-01-17T03:58:03.935Z,14.50
2023-01-17T04:00:34.828Z,19.70
2023-01-17T04:03:05.763Z,12.90
2023-01-17T04:05:36.598Z,12.10
2023-01-17T04:08:10.552Z,12.40
2023-01-17T04:10:41.382Z,11.20
2023-01-17T04:13:13.922Z,13.20
2023-01-17T04:15:46.175Z,11.90
2023-01-17T04:18:17.844Z,15.60
2023-01-17T04:20:48.778Z,16.00
2023-01-17T04:23:19.608Z,15.30
2023-01-17T04:25:50.320Z,11.60
2023-01-17T04:28:20.975Z,15.50
2023-01-17T04:30:51.956Z,15.30
2023-01-17T04:33:22.958Z,15.50
2023-01-17T04:35:55.234Z,16.20
2023-01-17T04:38:26.056Z,14.60
2023-01-17T04:40:56.984Z,15.60
2023-01-17T04:43:27.931Z,16.60
2023-01-17T04:45:59.185Z,16.30
2023-01-17T04:48:31.764Z,19.40
2023-01-17T04:51:02.833Z,17.10
2023-01-17T04:53:33.739Z,19.80
2023-01-17T04:56:05.152Z,21.40
2023-01-17T04:58:36.118Z,15.90
2023-01-17T05:01:08.369Z,19.10
2023-01-17T05:03:39.238Z,16.70
2023-01-17T05:06:10.200Z,15.80
2023-01-17T05:08:41.103Z,17.70
2023-01-17T05:11:12.142Z,19.10
2023-01-17T05:13:43.211Z,16.20
2023-01-17T05:16:14.116Z,15.90
2023-01-17T05:18:44.854Z,14.90
2023-01-17T05:21:16.309Z,15.20
2023-01-17T05:23:47.192Z,18.00
2023-01-17T05:26:18.026Z,14.70
2023-01-17T05:28:48.811Z,16.60
2023-01-17T05:31:20.302Z,14.80
2023-01-17T05:33:51.200Z,21.50
2023-01-17T05:36:22.014Z,14.30
2023-01-17T05:38:52.976Z,13.10
2023-01-17T05:41:23.903Z,14.20
2023-01-17T05:43:54.850Z,21.60
2023-01-17T05:46:26.536Z,13.30
2023-01-17T05:48:57.572Z,16.80
2023-01-17T05:51:29.809Z,14.70
2023-01-17T05:54:00.550Z,19.90
2023-01-17T05:56:31.358Z,18.00
2023-01-17T05:59:02.320Z,17.10
2023-01-17T06:01:33.665Z,16.90
2023-01-17T06:04:04.561Z,14.70
2023-01-17T06:06:35.441Z,17.40
2023-01-17T06:09:06.404Z,14.30
2023-01-17T06:11:37.524Z,15.90
2023-01-17T06:14:08.249Z,17.60
2023-01-17T06:16:39.706Z,15.80
2023-01-17T06:19:11.034Z,17.50
2023-01-17T06:21:41.729Z,15.80
2023-01-17T06:24:12.354Z,14.50
2023-01-17T06:26:44.740Z,14.80
2023-01-17T06:29:15.591Z,19.70
2023-01-17T06:31:46.562Z,16.00
2023-01-17T06:34:17.305Z,18.00
2023-01-17T06:36:48.350Z,14.50
2023-01-17T06:39:19.169Z,14.00
2023-01-17T06:41:49.846Z,14.00
2023-01-17T06:44:20.590Z,15.80
2023-01-17T06:46:51.574Z,14.00
2023-01-17T06:49:22.375Z,14.50
2023-01-17T06:51:53.321Z,16.30
2023-01-17T06:54:24.082Z,16.40
2023-01-17T06:56:54.833Z,16.60
2023-01-17T06:59:25.545Z,17.70
2023-01-17T07:01:56.301Z,17.60
2023-01-17T07:04:27.013Z,19.90
2023-01-17T07:06:57.766Z,19.00
2023-01-17T07:09:28.676Z,21.40
2023-01-17T07:12:02.247Z,17.10
2023-01-17T07:14:33.020Z,20.10
2023-01-17T07:17:05.486Z,21.20
2023-01-17T07:19:36.325Z,21.90
2023-01-17T07:22:07.669Z,24.70
2023-01-17T07:24:38.729Z,20.40
2023-01-17T07:27:09.920Z,21.20
2023-01-17T07:29:40.687Z,24.90
2023-01-17T07:32:11.637Z,24.10
2023-01-17T07:34:42.385Z,18.80
2023-01-17T07:37:15.219Z,20.10
2023-01-17T07:39:46.182Z,20.20
2023-01-17T07:42:16.912Z,23.30
2023-01-17T07:44:48.894Z,18.70
2023-01-17T07:47:20.362Z,24.90
2023-01-17T07:49:51.382Z,17.50
2023-01-17T07:52:22.153Z,22.10
2023-01-17T07:54:52.851Z,15.70
2023-01-17T07:57:24.589Z,16.80
2023-01-17T07:59:55.322Z,15.90
2023-01-17T08:02:26.376Z,14.30
2023-01-17T08:04:57.365Z,13.90
2023-01-17T08:07:29.452Z,15.90
2023-01-17T08:10:01.498Z,15.70
2023-01-17T08:12:32.282Z,19.20
2023-01-17T08:15:03.310Z,14.30
2023-01-17T08:17:34.093Z,17.90
2023-01-17T08:20:06.510Z,16.50
2023-01-17T08:22:37.763Z,18.60
2023-01-17T08:25:09.374Z,18.20
2023-01-17T08:27:40.226Z,18.50
2023-01-17T08:39:08.312Z,26.60
2023-01-17T08:41:40.243Z,24.20
2023-01-17T08:44:11.483Z,27.80
2023-01-17T08:46:44.473Z,26.00
2023-01-17T08:49:15.215Z,29.00
2023-01-17T08:51:46.130Z,26.40
2023-01-17T08:54:17.416Z,23.60
2023-01-17T08:56:48.336Z,25.50
2023-01-17T08:59:19.161Z,20.20
2023-01-17T09:01:52.711Z,27.60
2023-01-17T09:04:23.776Z,25.90
2023-01-17T09:06:54.488Z,21.40
2023-01-17T09:09:25.265Z,26.20
2023-01-17T09:11:55.999Z,21.40
2023-01-17T09:14:26.885Z,24.10
2023-01-17T09:16:57.775Z,24.10
2023-01-17T09:19:30.092Z,24.60
2023-01-17T09:22:00.782Z,22.20
2023-01-17T09:24:33.063Z,20.50
2023-01-17T09:27:04.339Z,25.80
2023-01-17T09:29:35.134Z,21.50
2023-01-17T09:32:06.805Z,19.70
2023-01-17T09:34:37.657Z,21.00
2023-01-17T09:37:08.659Z,25.20
2023-01-17T09:39:39.830Z,22.30
2023-01-17T09:42:19.160Z,26.50
2023-01-17T09:44:52.380Z,19.70
2023-01-17T09:47:32.469Z,18.40
2023-01-17T09:50:10.078Z,19.10
2023-01-17T09:52:41.210Z,22.90
2023-01-17T09:55:16.567Z,21.70
2023-01-17T09:57:50.976Z,22.20
2023-01-17T10:00:28.909Z,17.60
2023-01-17T10:03:10.172Z,26.30
2023-01-17T10:05:47.515Z,18.50
2023-01-17T10:08:25.249Z,22.00
2023-01-17T10:11:02.016Z,20.60
2023-01-17T10:13:38.931Z,20.00
2023-01-17T10:16:14.288Z,17.40
2023-01-17T10:19:00.235Z,22.60
2023-01-17T10:21:34.302Z,22.80
2023-01-17T10:24:22.598Z,21.20
2023-01-17T10:26:54.841Z,23.10
2023-01-17T10:29:29.379Z,25.30
2023-01-17T10:32:00.749Z,21.80
2023-01-17T10:34:36.030Z,19.60
2023-01-17T10:37:12.692Z,18.00
2023-01-17T10:39:44.862Z,19.00
2023-01-17T10:42:20.301Z,15.70
2023-01-17T10:44:53.970Z,20.10
2023-01-17T10:49:55.105Z,19.90
2023-01-17T10:52:30.880Z,20.20
2023-01-17T10:55:11.130Z,21.30
2023-01-17T10:57:42.852Z,16.90
2023-01-17T11:00:23.760Z,18.90
2023-01-17T11:02:54.804Z,17.90
2023-01-17T11:05:28.500Z,17.90
2023-01-17T11:08:06.614Z,20.80
2023-01-17T11:10:42.760Z,18.90
2023-01-17T11:13:27.522Z,16.30
2023-01-17T11:16:00.888Z,19.80
2023-01-17T11:18:33.083Z,16.70
2023-01-17T11:21:12.415Z,15.20
2023-01-17T11:23:43.994Z,12.90
2023-01-17T11:26:24.441Z,13.60
2023-01-17T11:29:14.344Z,14.10
2023-01-17T11:31:45.250Z,12.90
2023-01-17T11:34:18.279Z,13.40
2023-01-17T11:36:50.400Z,13.70
2023-01-17T11:39:27.822Z,13.20
2023-01-17T11:41:59.030Z,12.90
2023-01-17T11:44:30.600Z,14.30
2023-01-17T11:47:15.912Z,12.60
2023-01-17T11:49:47.371Z,14.40
2023-01-17T11:52:22.440Z,15.70
2023-01-17T11:54:54.384Z,16.70
2023-01-17T11:57:26.470Z,14.10
2023-01-17T11:59:59.453Z,14.70
2023-01-17T12:02:37.310Z,13.40
2023-01-17T12:05:18.821Z,14.10
2023-01-17T12:07:53.256Z,12.80
2023-01-17T12:10:27.071Z,16.20
2023-01-17T12:13:20.836Z,14.20
2023-01-17T12:15:58.008Z,13.00
2023-01-17T12:18:34.773Z,14.80
2023-01-17T12:21:18.059Z,12.70
2023-01-17T12:24:03.502Z,11.40
2023-01-17T12:26:37.392Z,12.30
2023-01-17T12:29:40.030Z,11.40
2023-01-17T12:32:19.737Z,11.90
2023-01-17T12:34:52.939Z,14.00
2023-01-17T12:37:26.155Z,14.90
2023-01-17T12:42:29.585Z,12.00
2023-01-17T12:45:04.457Z,13.20
2023-01-17T12:47:38.318Z,12.80
2023-01-17T12:50:16.910Z,10.40
2023-01-17T12:52:52.138Z,9.70
2023-01-17T12:55:27.681Z,9.40
2023-01-17T12:58:01.465Z,9.20
2023-01-17T13:00:32.644Z,8.70
2023-01-17T13:03:06.770Z,8.90
2023-01-17T13:05:40.672Z,10.50
2023-01-17T13:08:18.374Z,11.00
2023-01-17T13:10:52.340Z,11.50
2023-01-17T13:13:24.341Z,7.90
2023-01-17T13:15:56.582Z,8.20
2023-01-17T13:18:29.963Z,11.10
2023-01-17T13:21:07.362Z,8.40
2023-01-17T13:23:45.661Z,9.70
2023-01-17T13:26:20.911Z,8.80
2023-01-17T13:28:55.124Z,12.40
2023-01-17T13:31:35.178Z,7.70
2023-01-17T13:34:27.305Z,6.40
2023-01-17T13:37:05.773Z,12.20
2023-01-17T13:39:53.431Z,8.80
2023-01-17T13:42:29.519Z,6.30
2023-01-17T13:45:00.208Z,7.60
2023-01-17T13:47:42.028Z,7.40
2023-01-17T13:50:30.144Z,7.40
2023-01-17T13:53:06.031Z,6.50
2023-01-17T13:55:47.119Z,6.30
2023-01-17T13:58:30.232Z,7.20
2023-01-17T14:01:00.846Z,7.50
2023-01-17T14:03:49.201Z,7.40
2023-01-17T14:06:35.612Z,8.00
2023-01-17T14:09:12.850Z,6.70
2023-01-17T14:11:53.504Z,6.90
2023-01-17T14:14:41.802Z,6.60
2023-01-17T14:17:30.344Z,6.70
2023-01-17T14:20:21.621Z,8.40
2023-01-17T14:22:53.643Z,7.80
2023-01-17T14:25:26.135Z,8.10
2023-01-17T14:27:58.985Z,7.20
2023-01-17T14:30:35.002Z,7.10
2023-01-17T14:33:12.655Z,7.60
2023-01-17T14:35:51.149Z,6.30
2023-01-17T14:38:22.847Z,7.70
2023-01-17T14:40:55.926Z,6.80
2023-01-17T14:43:28.992Z,6.00
2023-01-17T14:46:01.670Z,6.90
2023-01-17T14:48:32.685Z,10.20
2023-01-17T14:51:12.919Z,9.30
2023-01-17T14:53:53.145Z,8.40
2023-01-17T14:56:24.218Z,9.80
2023-01-17T14:59:08.114Z,9.50
2023-01-17T15:01:39.541Z,9.90
2023-01-17T15:04:21.640Z,8.60
2023-01-17T15:06:52.483Z,8.50
2023-01-17T15:09:25.058Z,9.80
2023-01-17T15:11:57.530Z,8.60
2023-01-17T15:14:29.802Z,7.60
2023-01-17T15:17:09.859Z,12.20
2023-01-17T15:19:44.289Z,8.20
2023-01-17T15:22:16.033Z,7.10
2023-01-17T15:24:47.377Z,7.30
2023-01-17T15:27:18.423Z,10.20
2023-01-17T15:29:49.830Z,10.30
2023-01-17T15:32:22.558Z,11.20
2023-01-17T15:34:54.220Z,12.50
2023-01-17T15:37:29.026Z,8.60
2023-01-17T15:40:08.848Z,10.80
2023-01-17T15:42:40.431Z,9.10
2023-01-17T15:45:16.309Z,8.90
2023-01-17T15:47:47.032Z,12.60
2023-01-17T15:50:28.820Z,12.50
2023-01-17T15:53:00.965Z,13.20
2023-01-17T15:55:33.615Z,10.50
2023-01-17T15:58:05.313Z,10.80
2023-01-17T16:00:39.828Z,15.00
2023-01-17T16:03:21.151Z,20.20
2023-01-17T16:05:53.568Z,19.50
2023-01-17T16:08:40.694Z,12.60
2023-01-17T16:11:12.932Z,15.10
2023-01-17T16:13:47.294Z,14.50
2023-01-17T16:16:26.449Z,18.00
2023-01-17T16:19:00.966Z,19.70
2023-01-17T16:21:32.638Z,12.30
2023-01-17T16:24:04.075Z,10.00
2023-01-17T16:26:35.302Z,16.10
2023-01-17T16:29:07.975Z,12.40
2023-01-17T16:31:38.629Z,18.30
2023-01-17T16:34:13.081Z,16.10
2023-01-17T16:36:44.003Z,12.30
2023-01-17T16:39:16.298Z,14.50
2023-01-17T16:41:47.164Z,13.20
2023-01-17T16:44:18.114Z,16.70
2023-01-17T16:46:48.941Z,14.80
2023-01-17T16:49:19.879Z,14.70
2023-01-17T16:51:51.531Z,13.40
2023-01-17T16:54:22.468Z,12.20
2023-01-17T16:56:53.219Z,17.50
2023-01-17T16:59:23.937Z,9.40
2023-01-17T17:01:55.002Z,14.60
2023-01-17T17:04:26.183Z,18.20
2023-01-17T17:06:56.868Z,14.00
2023-01-17T17:09:27.629Z,14.30
2023-01-17T17:11:58.273Z,18.10
2023-01-17T17:14:29.459Z,19.00
2023-01-17T17:17:02.912Z,18.20
2023-01-17T17:22:02.908Z,13.10
2023-01-17T17:24:34.079Z,23.80
2023-01-17T17:27:05.003Z,16.00
2023-01-17T17:29:36.521Z,15.70
2023-01-17T17:32:12.178Z,15.80
2023-01-17T17:34:42.972Z,17.50
2023-01-17T17:37:16.131Z,16.20
2023-01-17T17:39:46.942Z,19.20
2023-01-17T17:42:20.187Z,19.10
2023-01-17T17:44:50.767Z,18.40
2023-01-17T17:47:21.597Z,18.60
2023-01-17T17:49:52.430Z,17.40
2023-01-17T17:52:23.310Z,17.70
2023-01-17T17:54:53.991Z,19.30
2023-01-17T17:57:24.873Z,25.80
2023-01-17T17:59:56.950Z,27.80
2023-01-17T18:02:27.936Z,29.40
2023-01-17T18:04:59.102Z,22.10
2023-01-17T18:07:34.403Z,23.40
2023-01-17T18:10:05.663Z,29.20
2023-01-17T18:12:36.696Z,30.10
2023-01-17T18:15:08.292Z,26.40
2023-01-17T18:17:39.425Z,21.70
2023-01-17T18:20:11.261Z,25.20
2023-01-17T18:22:44.370Z,23.50
2023-01-17T18:25:15.008Z,25.70
2023-01-17T18:27:46.399Z,24.80
2023-01-17T18:41:03.443Z,25.90
2023-01-17T18:43:34.522Z,29.90
2023-01-17T18:46:05.591Z,28.70
2023-01-17T18:48:37.343Z,48.80
2023-01-17T18:51:09.894Z,27.10
2023-01-17T18:53:41.740Z,31.80
2023-01-17T18:56:13.886Z,27.70
2023-01-17T18:58:45.605Z,28.10
2023-01-17T19:01:17.809Z,29.10
2023-01-17T19:03:49.789Z,32.00
2023-01-17T19:06:21.788Z,27.10
2023-01-17T19:08:53.058Z,32.00
2023-01-17T19:11:25.031Z,34.30
2023-01-17T19:13:56.426Z,34.60
2023-01-17T19:16:28.220Z,31.50
2023-01-17T19:19:02.733Z,32.10
2023-01-17T19:21:33.786Z,32.00
2023-01-17T19:24:04.709Z,32.30
2023-01-17T19:26:35.760Z,31.70
2023-01-17T19:29:07.462Z,35.90
2023-01-17T19:31:42.769Z,36.10
2023-01-17T19:34:16.242Z,30.80
2023-01-17T19:36:47.610Z,31.70
2023-01-17T19:39:18.441Z,31.40
2023-01-17T19:41:49.168Z,30.90
2023-01-17T19:44:19.994Z,29.30
2023-01-17T19:46:50.938Z,32.00
2023-01-17T19:49:24.852Z,32.40
2023-01-17T19:54:24.979Z,31.40
2023-01-17T19:56:55.809Z,29.30
2023-01-17T19:59:26.850Z,33.20
2023-01-17T20:01:57.798Z,28.50
2023-01-17T20:04:29.134Z,25.60
2023-01-17T20:06:59.870Z,32.70
2023-01-17T20:09:30.914Z,40.30
2023-01-17T20:12:01.571Z,31.70
2023-01-17T20:14:32.386Z,34.20
2023-01-17T20:17:03.076Z,33.60
2023-01-17T20:19:33.945Z,34.60
2023-01-17T20:22:05.637Z,37.80
2023-01-17T20:24:36.846Z,40.00
2023-01-17T20:27:07.894Z,37.50
2023-01-17T20:29:40.884Z,42.60
2023-01-17T20:32:11.603Z,39.00
2023-01-17T20:34:44.686Z,41.00
2023-01-17T20:37:16.452Z,45.00
2023-01-17T20:39:48.201Z,38.70
2023-01-17T20:42:18.792Z,37.90
2023-01-17T20:44:51.135Z,46.70
2023-01-17T20:47:22.067Z,38.70
2023-01-17T20:49:53.196Z,40.80
2023-01-17T20:52:23.816Z,38.10
2023-01-17T20:54:54.857Z,33.90
2023-01-17T20:57:25.691Z,30.40
2023-01-17T20:59:57.201Z,31.20
2023-01-17T21:02:29.030Z,33.00
2023-01-17T21:05:00.524Z,39.00
2023-01-17T21:07:31.443Z,31.30
2023-01-17T21:10:02.612Z,33.20
2023-01-17T21:12:33.586Z,34.60
2023-01-17T21:15:05.100Z,36.20
2023-01-17T21:17:41.391Z,36.70
2023-01-17T21:20:13.969Z,39.00
2023-01-17T21:22:44.708Z,36.60
2023-01-17T21:25:15.604Z,36.50
2023-01-17T21:27:46.578Z,33.70
2023-01-17T21:30:17.896Z,34.90
2023-01-17T21:32:48.504Z,31.40
2023-01-17T21:35:19.607Z,34.80
2023-01-17T21:37:51.205Z,33.40
2023-01-17T21:40:22.260Z,33.40
2023-01-17T21:42:53.977Z,37.10
2023-01-17T21:45:26.529Z,30.70
2023-01-17T21:47:57.619Z,34.60
2023-01-17T21:50:33.591Z,34.00
2023-01-17T21:53:05.529Z,31.70
2023-01-17T21:55:54.770Z,36.20
2023-01-17T21:58:43.089Z,32.60
2023-01-17T22:01:21.874Z,30.60
2023-01-17T22:03:53.607Z,31.90
2023-01-17T22:06:25.943Z,29.50
2023-01-17T22:08:57.086Z,29.60
2023-01-17T22:11:30.632Z,29.70
2023-01-17T22:16:30.922Z,30.70
2023-01-17T22:19:01.877Z,31.20
2023-01-17T22:21:33.001Z,27.70
2023-01-17T22:24:03.809Z,30.30
2023-01-17T22:26:35.394Z,29.40
2023-01-17T22:29:06.080Z,31.20
2023-01-17T22:31:37.786Z,30.40
2023-01-17T22:34:08.460Z,28.80
2023-01-17T22:36:39.789Z,34.60
2023-01-17T22:39:10.898Z,27.70
2023-01-17T22:41:41.839Z,35.30
2023-01-17T22:44:12.481Z,30.00
2023-01-17T22:46:43.735Z,31.30
2023-01-17T22:49:17.117Z,28.80
2023-01-17T22:54:16.992Z,23.30
2023-01-17T22:56:49.101Z,26.10
2023-01-17T22:59:19.959Z,20.90
2023-01-17T23:01:50.685Z,20.80
2023-01-17T23:04:21.509Z,21.40
2023-01-17T23:06:52.284Z,22.00
2023-01-17T23:09:22.995Z,20.00
2023-01-17T23:11:55.458Z,20.30
2023-01-17T23:14:27.207Z,19.80
2023-01-17T23:17:16.370Z,24.60
2023-01-17T23:19:47.919Z,20.90
2023-01-17T23:22:20.724Z,20.00
2023-01-17T23:24:53.014Z,20.20
2023-01-17T23:27:42.146Z,20.00
2023-01-17T23:30:14.587Z,19.00
2023-01-17T23:32:47.212Z,21.60
2023-01-17T23:35:18.895Z,17.10
2023-01-17T23:38:07.494Z,18.20
2023-01-17T23:40:39.168Z,18.80
2023-01-17T23:43:26.019Z,15.30
2023-01-17T23:45:56.999Z,15.60
2023-01-17T23:48:27.980Z,13.80
2023-01-17T23:51:00.428Z,11.40
2023-01-17T23:53:31.407Z,12.10
2023-01-17T23:56:05.770Z,11.30
2023-01-17T23:58:36.496Z,10.60
